Observation data for Olton on 08/14/2019      Previous  Date  Next       Current Mesonet Observations  Soil Data  Daily Summary Page  Observations in Plain Language
KONS 140500Z 10008KT 23/16 A3015 RMK A01 T02320162  RH  066%=      5-min Rain = 0
KONS 140505Z 10007KT 23/16 A3015 RMK A01 T02320162  RH  066%=      5-min Rain = 0
KONS 140510Z 09007KT 23/16 A3015 RMK A01 T02310162  RH  066%=      5-min Rain = 0
KONS 140515Z 07006KT 23/16 A3015 RMK A01 T02290162  RH  068%=      5-min Rain = 0
KONS 140520Z 07006KT 23/16 A3015 RMK A01 T02270162  RH  068%=      5-min Rain = 0
KONS 140525Z 07007KT 23/16 A3015 RMK A01 T02260163  RH  069%=      5-min Rain = 0
KONS 140530Z 06007KT 23/16 A3015 RMK A01 T02260164  RH  070%=      5-min Rain = 0
KONS 140535Z 06006KT 22/16 A3015 RMK A01 T02240164  RH  071%=      5-min Rain = 0
KONS 140540Z 08006KT 22/16 A3014 RMK A01 T02230164  RH  071%=      5-min Rain = 0
KONS 140545Z 09007KT 22/17 A3014 RMK A01 T02230165  RH  071%=      5-min Rain = 0
KONS 140550Z 10008KT 22/17 A3014 RMK A01 T02210166  RH  072%=      5-min Rain = 0
KONS 140555Z 09008KT 22/17 A3014 RMK A01 T02230168  RH  073%=      5-min Rain = 0
KONS 140600Z 09008KT 22/17 A3015 RMK A01 T02230169  RH  073%=      5-min Rain = 0
KONS 140605Z 09007KT 22/17 A3015 RMK A01 T02240170  RH  073%=      5-min Rain = 0
KONS 140610Z 08006KT 22/17 A3015 RMK A01 T02240170  RH  073%=      5-min Rain = 0
KONS 140615Z 07006KT 22/17 A3016 RMK A01 T02210169  RH  074%=      5-min Rain = 0
KONS 140620Z 06007KT 22/17 A3016 RMK A01 T02200170  RH  075%=      5-min Rain = 0
KONS 140625Z 06008KT 22/17 A3017 RMK A01 T02210171  RH  075%=      5-min Rain = 0
KONS 140630Z 07008KT 22/17 A3017 RMK A01 T02230172  RH  075%=      5-min Rain = 0
KONS 140635Z 07008KT 22/17 A3017 RMK A01 T02240173  RH  075%=      5-min Rain = 0
KONS 140640Z 06009KT 23/17 A3017 RMK A01 T02250174  RH  074%=      5-min Rain = 0
KONS 140645Z 06010KT 23/17 A3018 RMK A01 T02260173  RH  074%=      5-min Rain = 0
KONS 140650Z 06010KT 23/17 A3018 RMK A01 T02260173  RH  074%=      5-min Rain = 0
KONS 140655Z 05011KT 23/17 A3018 RMK A01 T02250173  RH  074%=      5-min Rain = 0
KONS 140700Z 05010KT 22/17 A3018 RMK A01 T02240173  RH  075%=      5-min Rain = 0
KONS 140705Z 06010KT 22/17 A3018 RMK A01 T02240174  RH  075%=      5-min Rain = 0
KONS 140710Z 06010KT 22/18 A3018 RMK A01 T02240175  RH  075%=      5-min Rain = 0
KONS 140715Z 07010KT 23/18 A3017 RMK A01 T02250176  RH  075%=      5-min Rain = 0
KONS 140720Z 07009KT 23/18 A3017 RMK A01 T02250176  RH  076%=      5-min Rain = 0
KONS 140725Z 07009KT 22/18 A3018 RMK A01 T02240176  RH  076%=      5-min Rain = 0
KONS 140730Z 06008KT 22/18 A3018 RMK A01 T02230176  RH  077%=      5-min Rain = 0
KONS 140735Z 06007KT 22/18 A3018 RMK A01 T02220176  RH  077%=      5-min Rain = 0
KONS 140740Z 06006KT 22/18 A3018 RMK A01 T02200176  RH  078%=      5-min Rain = 0
KONS 140745Z 07006KT 22/18 A3018 RMK A01 T02190176  RH  078%=      5-min Rain = 0
KONS 140750Z 07006KT 22/18 A3018 RMK A01 T02180176  RH  079%=      5-min Rain = 0
KONS 140755Z 08006KT 22/18 A3017 RMK A01 T02170176  RH  079%=      5-min Rain = 0
KONS 140800Z 08007KT 22/18 A3017 RMK A01 T02170176  RH  079%=      5-min Rain = 0
KONS 140805Z 08007KT 22/18 A3017 RMK A01 T02160176  RH  080%=      5-min Rain = 0
KONS 140810Z 07007KT 22/18 A3017 RMK A01 T02150176  RH  080%=      5-min Rain = 0
KONS 140815Z 08007KT 21/18 A3017 RMK A01 T02140176  RH  081%=      5-min Rain = 0
KONS 140820Z 08006KT 21/18 A3017 RMK A01 T02130176  RH  081%=      5-min Rain = 0
KONS 140825Z 08006KT 21/18 A3017 RMK A01 T02120175  RH  082%=      5-min Rain = 0
KONS 140830Z 08006KT 21/18 A3017 RMK A01 T02110175  RH  082%=      5-min Rain = 0
KONS 140835Z 08006KT 21/17 A3017 RMK A01 T02090174  RH  082%=      5-min Rain = 0
KONS 140840Z 07006KT 21/17 A3017 RMK A01 T02080174  RH  083%=      5-min Rain = 0
KONS 140845Z 07005KT 21/17 A3017 RMK A01 T02070174  RH  084%=      5-min Rain = 0
KONS 140850Z 06006KT 21/17 A3017 RMK A01 T02050174  RH  084%=      5-min Rain = 0
KONS 140855Z 06006KT 20/17 A3017 RMK A01 T02040174  RH  085%=      5-min Rain = 0
KONS 140900Z 06006KT 20/17 A3017 RMK A01 T02040174  RH  085%=      5-min Rain = 0
KONS 140905Z 06006KT 20/18 A3017 RMK A01 T02040175  RH  086%=      5-min Rain = 0
KONS 140910Z 06007KT 20/18 A3017 RMK A01 T02030175  RH  086%=      5-min Rain = 0
KONS 140915Z 07006KT 20/17 A3017 RMK A01 T02020174  RH  086%=      5-min Rain = 0
KONS 140920Z 08005KT 20/18 A3017 RMK A01 T02030175  RH  086%=      5-min Rain = 0
KONS 140925Z 07005KT 20/18 A3018 RMK A01 T02030175  RH  086%=      5-min Rain = 0
KONS 140930Z 04007KT 20/18 A3018 RMK A01 T02020175  RH  086%=      5-min Rain = 0
KONS 140935Z 03010KT 20/17 A3019 RMK A01 T02020174  RH  086%=      5-min Rain = 0
KONS 140940Z 03010KT 20/18 A3019 RMK A01 T02040176  RH  086%=      5-min Rain = 0
KONS 140945Z 04010KT 21/18 A3019 RMK A01 T02090177  RH  084%=      5-min Rain = 0
KONS 140950Z 04010KT 21/17 A3019 RMK A01 T02090174  RH  083%=      5-min Rain = 0
KONS 140955Z 04010KT 21/17 A3019 RMK A01 T02070173  RH  083%=      5-min Rain = 0
KONS 141000Z 04010KT 21/17 A3019 RMK A01 T02060173  RH  083%=      5-min Rain = 0
KONS 141005Z 04011G17KT 21/17 A302 RMK A01 T02070172  RH  082%=      5-min Rain = 0
KONS 141010Z 04012G18KT 21/17 A302 RMK A01 T02060169  RH  081%=      5-min Rain = 0
KONS 141015Z 05014KT 21/16 A3019 RMK A01 T02060161  RH  077%=      5-min Rain = 0
KONS 141020Z 04014KT 21/16 A302 RMK A01 T02060158  RH  075%=      5-min Rain = 0
KONS 141025Z 04011KT 20/16 A302 RMK A01 T02040157  RH  076%=      5-min Rain = 0
KONS 141030Z 04013KT 20/16 A3021 RMK A01 T02030159  RH  077%=      5-min Rain = 0
KONS 141035Z 04014G20KT 20/16 A3021 RMK A01 T02030157  RH  077%=      5-min Rain = 0
KONS 141040Z 04014G19KT 20/15 A3021 RMK A01 T02020150  RH  074%=      5-min Rain = 0
KONS 141045Z 04013G18KT 20/15 A302 RMK A01 T02020148  RH  073%=      5-min Rain = 0
KONS 141050Z 04012G17KT 20/15 A3021 RMK A01 T02000150  RH  074%=      5-min Rain = 0
KONS 141055Z 04014G19KT 20/14 A3021 RMK A01 T01980143  RH  072%=      5-min Rain = 0
KONS 141100Z 04016KT 20/14 A302 RMK A01 T01990138  RH  069%=      5-min Rain = 0
KONS 141105Z 04013G20KT 20/14 A3021 RMK A01 T01970136  RH  069%=      5-min Rain = 0
KONS 141110Z 03014KT 20/14 A3021 RMK A01 T01960136  RH  070%=      5-min Rain = 0
KONS 141115Z 03012KT 19/14 A3021 RMK A01 T01940135  RH  070%=      5-min Rain = 0
KONS 141120Z 03013KT 19/14 A3021 RMK A01 T01920135  RH  071%=      5-min Rain = 0
KONS 141125Z 03013G18KT 19/13 A3021 RMK A01 T01910133  RH  071%=      5-min Rain = 0
KONS 141130Z 03012KT 19/13 A3022 RMK A01 T01900133  RH  071%=      5-min Rain = 0
KONS 141135Z 03012KT 19/13 A3022 RMK A01 T01900132  RH  071%=      5-min Rain = 0
KONS 141140Z 03014KT 19/13 A3023 RMK A01 T01900130  RH  069%=      5-min Rain = 0
KONS 141145Z 03014G19KT 19/13 A3023 RMK A01 T01920128  RH  068%=      5-min Rain = 0
KONS 141150Z 03012KT 19/13 A3023 RMK A01 T01930127  RH  067%=      5-min Rain = 0
KONS 141155Z 03011KT 19/13 A3024 RMK A01 T01930127  RH  067%=      5-min Rain = 0
KONS 141200Z 03012KT 19/13 A3024 RMK A01 T01920126  RH  067%=      5-min Rain = 0
KONS 141205Z 03012KT 19/13 A3024 RMK A01 T01910127  RH  068%=      5-min Rain = 0
KONS 141210Z 04012G17KT 19/13 A3024 RMK A01 T01910128  RH  068%=      5-min Rain = 0
KONS 141215Z 04013G19KT 19/13 A3024 RMK A01 T01910129  RH  068%=      5-min Rain = 0
KONS 141220Z 04012KT 19/13 A3024 RMK A01 T01920129  RH  068%=      5-min Rain = 0
KONS 141225Z 04011KT 19/13 A3025 RMK A01 T01940130  RH  068%=      5-min Rain = 0
KONS 141230Z 04011KT 20/13 A3025 RMK A01 T01950130  RH  067%=      5-min Rain = 0
KONS 141235Z 04011G16KT 20/13 A3024 RMK A01 T01950129  RH  067%=      5-min Rain = 0
KONS 141240Z 04015KT 20/13 A3025 RMK A01 T01950130  RH  067%=      5-min Rain = 0
KONS 141245Z 04015KT 20/13 A3025 RMK A01 T01950129  RH  067%=      5-min Rain = 0
KONS 141250Z 04011G17KT 20/13 A3025 RMK A01 T01960130  RH  067%=      5-min Rain = 0
KONS 141255Z 03013KT 20/13 A3026 RMK A01 T01980131  RH  066%=      5-min Rain = 0
KONS 141300Z 04011KT 20/13 A3026 RMK A01 T01990132  RH  066%=      5-min Rain = 0
KONS 141305Z 04012KT 20/13 A3026 RMK A01 T02020133  RH  066%=      5-min Rain = 0
KONS 141310Z 04012G17KT 20/13 A3026 RMK A01 T02020133  RH  066%=      5-min Rain = 0
KONS 141315Z 03013G18KT 20/13 A3027 RMK A01 T02020134  RH  066%=      5-min Rain = 0
KONS 141320Z 04012KT 20/13 A3026 RMK A01 T02020133  RH  066%=      5-min Rain = 0
KONS 141325Z 03012KT 20/13 A3027 RMK A01 T02040134  RH  065%=      5-min Rain = 0
KONS 141330Z 02012KT 21/14 A3028 RMK A01 T02050135  RH  065%=      5-min Rain = 0
KONS 141335Z 02013KT 21/13 A3028 RMK A01 T02060134  RH  065%=      5-min Rain = 0
KONS 141340Z 02013KT 21/14 A3028 RMK A01 T02060135  RH  065%=      5-min Rain = 0
KONS 141345Z 02015KT 21/14 A3029 RMK A01 T02080135  RH  064%=      5-min Rain = 0
KONS 141350Z 01013KT 21/14 A3029 RMK A01 T02110135  RH  063%=      5-min Rain = 0
KONS 141355Z 01013KT 21/13 A3029 RMK A01 T02130132  RH  061%=      5-min Rain = 0
KONS 141400Z 01014KT 21/13 A3029 RMK A01 T02140132  RH  060%=      5-min Rain = 0
KONS 141405Z 02012KT 22/13 A3029 RMK A01 T02170133  RH  060%=      5-min Rain = 0
KONS 141410Z 03012KT 22/14 A3029 RMK A01 T02220135  RH  059%=      5-min Rain = 0
KONS 141415Z 02013KT 22/13 A3029 RMK A01 T02190134  RH  060%=      5-min Rain = 0
KONS 141420Z 01012KT 22/14 A3029 RMK A01 T02200136  RH  060%=      5-min Rain = 0
KONS 141425Z 02012KT 22/14 A3029 RMK A01 T02240139  RH  060%=      5-min Rain = 0
KONS 141430Z 03010KT 23/14 A3028 RMK A01 T02310141  RH  058%=      5-min Rain = 0
KONS 141435Z 01013KT 23/14 A3029 RMK A01 T02250138  RH  059%=      5-min Rain = 0
KONS 141440Z 02012KT 22/14 A3029 RMK A01 T02220139  RH  061%=      5-min Rain = 0
KONS 141445Z 03009KT 23/14 A3028 RMK A01 T02270142  RH  060%=      5-min Rain = 0
KONS 141450Z 03009KT 24/14 A3028 RMK A01 T02350144  RH  058%=      5-min Rain = 0
KONS 141455Z 04008KT 23/14 A3028 RMK A01 T02330143  RH  058%=      5-min Rain = 0
KONS 141500Z 04008KT 23/14 A3027 RMK A01 T02320144  RH  059%=      5-min Rain = 0
KONS 141505Z 05007KT 23/15 A3027 RMK A01 T02320146  RH  060%=      5-min Rain = 0
KONS 141510Z 06007KT 23/15 A3026 RMK A01 T02330145  RH  059%=      5-min Rain = 0
KONS 141515Z 07006KT 24/15 A3026 RMK A01 T02360146  RH  058%=      5-min Rain = 0
KONS 141520Z 09006KT 24/15 A3025 RMK A01 T02400148  RH  058%=      5-min Rain = 0
KONS 141525Z 07005KT 24/15 A3026 RMK A01 T02380146  RH  058%=      5-min Rain = 0
KONS 141530Z 07005KT 24/15 A3026 RMK A01 T02380146  RH  057%=      5-min Rain = 0
KONS 141535Z 08003KT 24/15 A3026 RMK A01 T02420147  RH  057%=      5-min Rain = 0
KONS 141540Z 07004KT 25/15 A3026 RMK A01 T02450148  RH  056%=      5-min Rain = 0
KONS 141545Z 08007KT 25/15 A3024 RMK A01 T02460149  RH  056%=      5-min Rain = 0
KONS 141550Z 09010KT 25/15 A3023 RMK A01 T02470147  RH  055%=      5-min Rain = 0
KONS 141555Z 10010KT 25/14 A3023 RMK A01 T02480144  RH  053%=      5-min Rain = 0
KONS 141600Z 10009KT 25/14 A3022 RMK A01 T02490142  RH  053%=      5-min Rain = 0
KONS 141605Z 10009KT 25/14 A3022 RMK A01 T02520141  RH  051%=      5-min Rain = 0
KONS 141610Z 11012KT 25/14 A3021 RMK A01 T02520141  RH  051%=      5-min Rain = 0
KONS 141615Z 10012KT 26/14 A3021 RMK A01 T02560140  RH  050%=      5-min Rain = 0
KONS 141620Z 11010KT 26/14 A3021 RMK A01 T02580141  RH  049%=      5-min Rain = 0
KONS 141625Z 12008KT 26/14 A3022 RMK A01 T02600142  RH  049%=      5-min Rain = 0
KONS 141630Z 11008KT 27/14 A3022 RMK A01 T02740138  RH  044%=      5-min Rain = 0
KONS 141635Z 11006KT 27/13 A3022 RMK A01 T02720133  RH  043%=      5-min Rain = 0
KONS 141640Z 08007KT 28/13 A3023 RMK A01 T02770126  RH  040%=      5-min Rain = 0
KONS 141645Z 09008KT 27/13 A3023 RMK A01 T02740128  RH  041%=      5-min Rain = 0
KONS 141650Z 10007KT 28/13 A3023 RMK A01 T02770128  RH  040%=      5-min Rain = 0
KONS 141655Z 05005G10KT 28/13 A3023 RMK A01 T02830132  RH  040%=      5-min Rain = 0
KONS 141700Z 06008G13KT 28/13 A3023 RMK A01 T02820134  RH  041%=      5-min Rain = 0
KONS 141705Z 05011KT 29/13 A3022 RMK A01 T02860131  RH  039%=      5-min Rain = 0
KONS 141710Z 05010G17KT 28/13 A3023 RMK A01 T02820131  RH  040%=      5-min Rain = 0
KONS 141715Z 06011KT 28/13 A3023 RMK A01 T02830130  RH  039%=      5-min Rain = 0
KONS 141720Z 06010G15KT 28/13 A3023 RMK A01 T02800132  RH  041%=      5-min Rain = 0
KONS 141725Z 07008KT 28/13 A3023 RMK A01 T02840133  RH  040%=      5-min Rain = 0
KONS 141730Z 05008KT 28/14 A3023 RMK A01 T02840136  RH  041%=      5-min Rain = 0
KONS 141735Z 05009KT 29/13 A3022 RMK A01 T02880132  RH  039%=      5-min Rain = 0
KONS 141740Z 05009KT 29/12 A3022 RMK A01 T02850124  RH  038%=      5-min Rain = 0
KONS 141745Z 05006G11KT 28/13 A3022 RMK A01 T02820128  RH  039%=      5-min Rain = 0
KONS 141750Z 07008G14KT 29/12 A3023 RMK A01 T02870124  RH  037%=      5-min Rain = 0
KONS 141755Z 05008G15KT 29/12 A3023 RMK A01 T02910123  RH  036%=      5-min Rain = 0
KONS 141800Z 05011G16KT 29/13 A3023 RMK A01 T02920126  RH  037%=      5-min Rain = 0
KONS 141805Z 05010G15KT 30/13 A3023 RMK A01 T02950126  RH  036%=      5-min Rain = 0
KONS 141810Z 04010G15KT 30/13 A3023 RMK A01 T02970129  RH  036%=      5-min Rain = 0
KONS 141815Z 05008G13KT 29/13 A3023 RMK A01 T02900130  RH  038%=      5-min Rain = 0
KONS 141820Z 03009KT 29/13 A3023 RMK A01 T02920130  RH  038%=      5-min Rain = 0
KONS 141825Z 03007G12KT 29/13 A3023 RMK A01 T02910132  RH  038%=      5-min Rain = 0
KONS 141830Z 05009KT 29/13 A3023 RMK A01 T02940130  RH  037%=      5-min Rain = 0
KONS 141835Z 04006G12KT 29/13 A3023 RMK A01 T02890130  RH  038%=      5-min Rain = 0
KONS 141840Z 02012G18KT 29/13 A3023 RMK A01 T02930129  RH  037%=      5-min Rain = 0
KONS 141845Z 02009G15KT 29/13 A3023 RMK A01 T02880131  RH  039%=      5-min Rain = 0
KONS 141850Z 03008KT 29/13 A3023 RMK A01 T02940133  RH  038%=      5-min Rain = 0
KONS 141855Z 04008G15KT 29/13 A3023 RMK A01 T02930133  RH  038%=      5-min Rain = 0
KONS 141900Z 06010G16KT 30/13 A3022 RMK A01 T02970133  RH  037%=      5-min Rain = 0
KONS 141905Z 04011G16KT 30/13 A3022 RMK A01 T03010130  RH  036%=      5-min Rain = 0
KONS 141910Z 05009G15KT 30/12 A3022 RMK A01 T03010123  RH  034%=      5-min Rain = 0
KONS 141915Z 05010KT 30/12 A3022 RMK A01 T03020122  RH  034%=      5-min Rain = 0
KONS 141920Z 05008G14KT 30/12 A3022 RMK A01 T03010119  RH  033%=      5-min Rain = 0
KONS 141925Z 05010G19KT 30/12 A3021 RMK A01 T03020116  RH  032%=      5-min Rain = 0
KONS 141930Z 04010KT 30/11 A3021 RMK A01 T03030113  RH  032%=      5-min Rain = 0
KONS 141935Z 04007G12KT 30/11 A3021 RMK A01 T02990110  RH  031%=      5-min Rain = 0
KONS 141940Z 03004KT 30/11 A3021 RMK A01 T03030113  RH  031%=      5-min Rain = 0
KONS 141945Z 04007G13KT 31/12 A302 RMK A01 T03050116  RH  032%=      5-min Rain = 0
KONS 141950Z 08006G11KT 30/12 A302 RMK A01 T03030115  RH  032%=      5-min Rain = 0
KONS 141955Z 07004G9KT 30/12 A3019 RMK A01 T03010120  RH  033%=      5-min Rain = 0
KONS 142000Z 09007KT 31/12 A3019 RMK A01 T03050124  RH  034%=      5-min Rain = 0
KONS 142005Z 07006G11KT 31/12 A3019 RMK A01 T03090122  RH  032%=      5-min Rain = 0
KONS 142010Z 08006G11KT 31/12 A3018 RMK A01 T03060123  RH  033%=      5-min Rain = 0
KONS 142015Z 11004G13KT 31/12 A3018 RMK A01 T03080119  RH  032%=      5-min Rain = 0
KONS 142020Z 09007KT 31/12 A3017 RMK A01 T03110121  RH  032%=      5-min Rain = 0
KONS 142025Z 13005KT 31/12 A3017 RMK A01 T03100120  RH  032%=      5-min Rain = 0
KONS 142030Z 09004KT 31/12 A3017 RMK A01 T03110119  RH  031%=      5-min Rain = 0
KONS 142035Z 10005G11KT 31/12 A3016 RMK A01 T03100121  RH  032%=      5-min Rain = 0
KONS 142040Z 09005G10KT 31/12 A3016 RMK A01 T03110118  RH  031%=      5-min Rain = 0
KONS 142045Z 04001KT 31/12 A3016 RMK A01 T03110119  RH  031%=      5-min Rain = 0
KONS 142050Z 15003KT 32/12 A3016 RMK A01 T03150117  RH  030%=      5-min Rain = 0
KONS 142055Z 14003KT 32/12 A3015 RMK A01 T03160116  RH  030%=      5-min Rain = 0
KONS 142100Z 15002KT 32/12 A3015 RMK A01 T03150115  RH  030%=      5-min Rain = 0
KONS 142105Z 14003KT 32/11 A3015 RMK A01 T03180114  RH  029%=      5-min Rain = 0
KONS 142110Z 12002KT 32/11 A3015 RMK A01 T03210114  RH  029%=      5-min Rain = 0
KONS 142115Z 08004KT 32/11 A3015 RMK A01 T03220109  RH  028%=      5-min Rain = 0
KONS 142120Z 03004KT 32/11 A3014 RMK A01 T03180108  RH  028%=      5-min Rain = 0
KONS 142125Z 08003KT 32/11 A3014 RMK A01 T03180109  RH  028%=      5-min Rain = 0
KONS 142130Z 12002KT 32/11 A3014 RMK A01 T03180107  RH  028%=      5-min Rain = 0
KONS 142135Z 12003KT 32/11 A3013 RMK A01 T03200110  RH  028%=      5-min Rain = 0
KONS 142140Z 15003KT 32/11 A3013 RMK A01 T03190110  RH  028%=      5-min Rain = 0
KONS 142145Z 06001KT 32/11 A3013 RMK A01 T03190113  RH  029%=      5-min Rain = 0
KONS 142150Z 35002KT 32/11 A3013 RMK A01 T03220113  RH  028%=      5-min Rain = 0
KONS 142155Z 04002KT 32/11 A3013 RMK A01 T03240110  RH  028%=      5-min Rain = 0
KONS 142200Z 08003KT 33/11 A3013 RMK A01 T03250106  RH  026%=      5-min Rain = 0
KONS 142205Z 10002KT 33/10 A3013 RMK A01 T03280103  RH  026%=      5-min Rain = 0
KONS 142210Z 09002KT 33/10 A3013 RMK A01 T03300101  RH  025%=      5-min Rain = 0
KONS 142215Z 02002KT 33/10 A3013 RMK A01 T03260102  RH  026%=      5-min Rain = 0
KONS 142220Z 01004KT 33/10 A3012 RMK A01 T03270103  RH  026%=      5-min Rain = 0
KONS 142225Z 02007KT 33/10 A3012 RMK A01 T03270104  RH  026%=      5-min Rain = 0
KONS 142230Z 03004KT 33/10 A3012 RMK A01 T03260104  RH  026%=      5-min Rain = 0
KONS 142235Z 02007KT 33/10 A3012 RMK A01 T03250099  RH  025%=      5-min Rain = 0
KONS 142240Z 01007KT 33/10 A3012 RMK A01 T03250098  RH  025%=      5-min Rain = 0
KONS 142245Z 01006KT 32/09 A3012 RMK A01 T03240094  RH  025%=      5-min Rain = 0
KONS 142250Z 02007KT 33/10 A3012 RMK A01 T03250097  RH  025%=      5-min Rain = 0
KONS 142255Z 01006KT 33/10 A3012 RMK A01 T03250096  RH  025%=      5-min Rain = 0
KONS 142300Z 01003KT 32/09 A3012 RMK A01 T03240094  RH  025%=      5-min Rain = 0
KONS 142305Z 01004KT 33/10 A3012 RMK A01 T03250096  RH  025%=      5-min Rain = 0
KONS 142310Z 03006KT 33/10 A3012 RMK A01 T03290098  RH  025%=      5-min Rain = 0
KONS 142315Z 04003KT 33/10 A3012 RMK A01 T03250095  RH  025%=      5-min Rain = 0
KONS 142320Z 00001KT 33/09 A3012 RMK A01 T03250093  RH  024%=      5-min Rain = 0
KONS 142325Z 01004KT 33/10 A3012 RMK A01 T03270096  RH  025%=      5-min Rain = 0
KONS 142330Z 03003KT 32/10 A3012 RMK A01 T03240095  RH  025%=      5-min Rain = 0
KONS 142335Z 05004KT 33/10 A3012 RMK A01 T03260098  RH  025%=      5-min Rain = 0
KONS 142340Z 05004KT 33/10 A3011 RMK A01 T03250099  RH  025%=      5-min Rain = 0
KONS 142345Z 05006KT 32/10 A3011 RMK A01 T03240103  RH  026%=      5-min Rain = 0
KONS 142350Z 06007KT 32/10 A3011 RMK A01 T03210101  RH  026%=      5-min Rain = 0
KONS 142355Z 05005KT 32/10 A3011 RMK A01 T03180098  RH  026%=      5-min Rain = 0
KONS 150000Z 06004KT 32/10 A3011 RMK A01 T03190098  RH  026%=      5-min Rain = 0
KONS 150005Z 08004KT 32/10 A3011 RMK A01 T03190098  RH  026%=      5-min Rain = 0
KONS 150010Z 04005KT 31/11 A3011 RMK A01 T03140106  RH  028%=      5-min Rain = 0
KONS 150015Z 05004KT 31/11 A3011 RMK A01 T03090109  RH  030%=      5-min Rain = 0
KONS 150020Z 06003KT 31/11 A3011 RMK A01 T03100109  RH  030%=      5-min Rain = 0
KONS 150025Z 10004KT 32/10 A3011 RMK A01 T03160102  RH  027%=      5-min Rain = 0
KONS 150030Z 10004KT 32/10 A3011 RMK A01 T03180101  RH  027%=      5-min Rain = 0
KONS 150035Z 11003KT 32/10 A3011 RMK A01 T03180100  RH  027%=      5-min Rain = 0
KONS 150040Z 11003KT 32/10 A3012 RMK A01 T03160099  RH  027%=      5-min Rain = 0
KONS 150045Z 08004KT 31/11 A3012 RMK A01 T03100108  RH  029%=      5-min Rain = 0
KONS 150050Z 09004KT 30/12 A3012 RMK A01 T03020117  RH  033%=      5-min Rain = 0
KONS 150055Z 10005KT 30/12 A3012 RMK A01 T02960120  RH  035%=      5-min Rain = 0
KONS 150100Z 10004KT 29/12 A3012 RMK A01 T02930117  RH  034%=      5-min Rain = 0
KONS 150105Z 09004KT 29/12 A3012 RMK A01 T02910116  RH  034%=      5-min Rain = 0
KONS 150110Z 09004KT 29/12 A3012 RMK A01 T02880118  RH  036%=      5-min Rain = 0
KONS 150115Z 10004KT 29/12 A3012 RMK A01 T02850117  RH  036%=      5-min Rain = 0
KONS 150120Z 11003KT 28/12 A3012 RMK A01 T02810121  RH  038%=      5-min Rain = 0
KONS 150125Z 11002KT 28/12 A3012 RMK A01 T02810121  RH  038%=      5-min Rain = 0
KONS 150130Z 11002KT 28/12 A3013 RMK A01 T02800121  RH  038%=      5-min Rain = 0
KONS 150135Z 12001KT 28/12 A3013 RMK A01 T02770122  RH  039%=      5-min Rain = 0
KONS 150140Z 12001KT 27/12 A3013 RMK A01 T02740119  RH  039%=      5-min Rain = 0
KONS 150145Z 12002KT 27/12 A3013 RMK A01 T02720115  RH  038%=      5-min Rain = 0
KONS 150150Z 11002KT 27/12 A3014 RMK A01 T02710116  RH  039%=      5-min Rain = 0
KONS 150155Z 11003KT 28/12 A3014 RMK A01 T02760116  RH  038%=      5-min Rain = 0
KONS 150200Z 10003KT 28/12 A3014 RMK A01 T02770115  RH  037%=      5-min Rain = 0
KONS 150205Z 09004KT 28/12 A3014 RMK A01 T02760116  RH  038%=      5-min Rain = 0
KONS 150210Z 10005KT 27/12 A3014 RMK A01 T02700119  RH  040%=      5-min Rain = 0
KONS 150215Z 10005KT 27/12 A3015 RMK A01 T02650119  RH  041%=      5-min Rain = 0
KONS 150220Z 11004KT 26/12 A3015 RMK A01 T02640120  RH  041%=      5-min Rain = 0
KONS 150225Z 11004KT 26/12 A3015 RMK A01 T02630121  RH  042%=      5-min Rain = 0
KONS 150230Z 11004KT 26/13 A3015 RMK A01 T02610125  RH  044%=      5-min Rain = 0
KONS 150235Z 11005KT 26/13 A3015 RMK A01 T02600126  RH  044%=      5-min Rain = 0
KONS 150240Z 12007KT 26/13 A3015 RMK A01 T02590127  RH  045%=      5-min Rain = 0
KONS 150245Z 12006KT 26/13 A3015 RMK A01 T02550126  RH  046%=      5-min Rain = 0
KONS 150250Z 12006KT 25/13 A3015 RMK A01 T02520126  RH  046%=      5-min Rain = 0
KONS 150255Z 12006KT 25/13 A3016 RMK A01 T02520127  RH  047%=      5-min Rain = 0
KONS 150300Z 12006KT 25/13 A3016 RMK A01 T02510127  RH  047%=      5-min Rain = 0
KONS 150305Z 12007KT 25/12 A3016 RMK A01 T02510122  RH  045%=      5-min Rain = 0
KONS 150310Z 12006KT 25/12 A3017 RMK A01 T02530122  RH  045%=      5-min Rain = 0
KONS 150315Z 11006KT 25/12 A3017 RMK A01 T02480124  RH  047%=      5-min Rain = 0
KONS 150320Z 11006KT 24/13 A3017 RMK A01 T02440128  RH  049%=      5-min Rain = 0
KONS 150325Z 12006KT 24/13 A3017 RMK A01 T02410130  RH  051%=      5-min Rain = 0
KONS 150330Z 12006KT 24/13 A3017 RMK A01 T02390130  RH  052%=      5-min Rain = 0
KONS 150335Z 12006KT 24/13 A3017 RMK A01 T02370129  RH  052%=      5-min Rain = 0
KONS 150340Z 12007KT 24/13 A3017 RMK A01 T02360128  RH  052%=      5-min Rain = 0
KONS 150345Z 12007KT 24/13 A3017 RMK A01 T02350129  RH  053%=      5-min Rain = 0
KONS 150350Z 12007KT 23/13 A3018 RMK A01 T02320131  RH  054%=      5-min Rain = 0
KONS 150355Z 11006KT 23/13 A3018 RMK A01 T02300133  RH  055%=      5-min Rain = 0
KONS 150400Z 12007KT 23/13 A3018 RMK A01 T02270134  RH  057%=      5-min Rain = 0
KONS 150405Z 11006KT 22/13 A3018 RMK A01 T02240134  RH  058%=      5-min Rain = 0
KONS 150410Z 12006KT 22/14 A3018 RMK A01 T02230135  RH  059%=      5-min Rain = 0
KONS 150415Z 12007KT 22/14 A3018 RMK A01 T02220135  RH  059%=      5-min Rain = 0
KONS 150420Z 12007KT 22/14 A3018 RMK A01 T02190135  RH  060%=      5-min Rain = 0
KONS 150425Z 12008KT 22/14 A3018 RMK A01 T02200137  RH  060%=      5-min Rain = 0
KONS 150430Z 12007KT 22/14 A3019 RMK A01 T02190138  RH  061%=      5-min Rain = 0
KONS 150435Z 12007KT 22/14 A3018 RMK A01 T02200139  RH  061%=      5-min Rain = 0
KONS 150440Z 12006KT 22/14 A3018 RMK A01 T02200140  RH  062%=      5-min Rain = 0
KONS 150445Z 12006KT 22/14 A3018 RMK A01 T02190140  RH  062%=      5-min Rain = 0
KONS 150450Z 13006KT 22/14 A3018 RMK A01 T02170142  RH  063%=      5-min Rain = 0
KONS 150455Z 13006KT 22/14 A3018 RMK A01 T02170142  RH  063%=      5-min Rain = 0

Page generated in 0.0092 seconds.